createdAt,value
2018-12-02T00:00:24.474Z,71.07
2018-12-02T00:02:52.602Z,72.50
2018-12-02T00:05:20.430Z,86.53
2018-12-02T00:07:48.478Z,80.67
2018-12-02T00:10:17.178Z,79.13
2018-12-02T00:12:44.916Z,68.83
2018-12-02T00:15:15.693Z,81.17
2018-12-02T00:17:43.519Z,85.53
2018-12-02T00:20:12.871Z,86.67
2018-12-02T00:22:40.617Z,87.20
2018-12-02T00:25:12.975Z,87.83
2018-12-02T00:27:41.574Z,87.43
2018-12-02T00:30:11.773Z,77.87
2018-12-02T00:32:39.476Z,81.03
2018-12-02T00:35:08.878Z,87.57
2018-12-02T00:37:36.700Z,83.20
2018-12-02T00:40:09.267Z,84.13
2018-12-02T00:42:37.027Z,89.87
2018-12-02T00:45:07.472Z,83.67
2018-12-02T00:47:35.204Z,85.90
2018-12-02T00:50:03.149Z,78.83
2018-12-02T00:52:30.865Z,73.90
2018-12-02T00:54:58.599Z,79.67
2018-12-02T00:57:26.339Z,70.43
2018-12-02T00:59:54.146Z,64.50
2018-12-02T01:02:21.896Z,63.13
2018-12-02T01:04:49.645Z,60.90
2018-12-02T01:07:17.393Z,60.63
2018-12-02T01:09:45.130Z,59.17
2018-12-02T01:12:12.908Z,57.07
2018-12-02T01:14:40.615Z,58.80
2018-12-02T01:17:08.350Z,65.63
2018-12-02T01:19:36.092Z,60.63
2018-12-02T01:22:03.896Z,65.07
2018-12-02T01:24:31.624Z,71.53
2018-12-02T01:26:59.370Z,74.83
2018-12-02T01:29:27.080Z,66.43
2018-12-02T01:31:54.842Z,68.60
2018-12-02T01:34:22.576Z,57.53
2018-12-02T01:36:50.320Z,60.47
2018-12-02T01:39:18.236Z,55.87
2018-12-02T01:41:45.966Z,57.33
2018-12-02T01:44:13.681Z,70.37
2018-12-02T01:46:41.443Z,62.70
2018-12-02T01:49:09.165Z,68.03
2018-12-02T01:51:36.880Z,67.53
2018-12-02T01:54:05.132Z,72.83
2018-12-02T01:56:32.944Z,64.57
2018-12-02T01:59:00.670Z,77.37
2018-12-02T02:01:28.402Z,79.43
2018-12-02T02:03:56.140Z,71.70
2018-12-02T02:06:23.875Z,73.50
2018-12-02T02:08:51.629Z,75.73
2018-12-02T02:11:19.366Z,75.33
2018-12-02T02:13:47.118Z,76.80
2018-12-02T02:16:14.881Z,78.73
2018-12-02T02:18:42.618Z,73.30
2018-12-02T02:21:10.453Z,74.40
2018-12-02T02:23:38.216Z,73.67
2018-12-02T02:26:05.999Z,76.80
2018-12-02T02:28:33.735Z,111.77
2018-12-02T02:31:01.460Z,101.40
2018-12-02T02:33:29.194Z,90.30
2018-12-02T02:35:56.926Z,85.47
2018-12-02T02:38:24.669Z,76.20
2018-12-02T02:40:52.417Z,75.07
2018-12-02T02:43:20.169Z,72.23
2018-12-02T02:45:47.938Z,73.93
2018-12-02T02:48:15.682Z,76.47
2018-12-02T02:50:43.419Z,71.40
2018-12-02T02:53:11.222Z,77.73
2018-12-02T02:55:38.972Z,80.43
2018-12-02T02:58:06.734Z,75.67
2018-12-02T03:00:34.488Z,72.87
2018-12-02T03:03:02.202Z,76.43
2018-12-02T03:05:29.955Z,72.10
2018-12-02T03:07:57.681Z,74.20
2018-12-02T03:10:25.443Z,71.40
2018-12-02T03:12:53.817Z,72.03
2018-12-02T03:15:22.276Z,74.20
2018-12-02T03:17:50.032Z,72.07
2018-12-02T03:20:19.576Z,72.10
2018-12-02T03:22:50.017Z,69.83
2018-12-02T03:25:18.627Z,75.00
2018-12-02T03:27:46.369Z,66.87
2018-12-02T03:30:19.053Z,72.40
2018-12-02T03:32:46.985Z,69.40
2018-12-02T03:35:19.454Z,69.77
2018-12-02T03:37:47.199Z,65.97
2018-12-02T03:40:16.956Z,74.53
2018-12-02T03:42:44.753Z,72.40
2018-12-02T03:45:13.713Z,65.00
2018-12-02T03:47:41.441Z,71.17
2018-12-02T03:50:17.472Z,74.60
2018-12-02T03:52:41.214Z,70.57
2018-12-02T03:55:09.186Z,66.83
2018-12-02T03:57:36.965Z,62.03
2018-12-02T04:00:14.522Z,69.30
2018-12-02T04:02:42.291Z,61.70
2018-12-02T04:05:10.912Z,64.90
2018-12-02T04:07:38.671Z,58.83
2018-12-02T04:10:11.472Z,63.23
2018-12-02T04:12:39.241Z,59.67
2018-12-02T04:15:11.038Z,60.03
2018-12-02T04:17:38.806Z,68.03
2018-12-02T04:20:08.401Z,61.73
2018-12-02T04:22:36.292Z,66.17
2018-12-02T04:25:04.688Z,68.60
2018-12-02T04:27:32.436Z,57.50
2018-12-02T04:30:00.148Z,52.13
2018-12-02T04:32:27.894Z,59.17
2018-12-02T04:34:55.683Z,58.53
2018-12-02T04:37:23.446Z,59.37
2018-12-02T04:39:51.203Z,60.00
2018-12-02T04:42:18.985Z,66.00
2018-12-02T04:44:46.745Z,76.17
2018-12-02T04:47:14.498Z,72.33
2018-12-02T04:49:42.223Z,62.40
2018-12-02T04:52:09.950Z,64.60
2018-12-02T04:54:37.675Z,62.37
2018-12-02T04:57:05.867Z,64.97
2018-12-02T04:59:33.612Z,61.83
2018-12-02T05:02:01.442Z,60.30
2018-12-02T05:04:29.191Z,62.97
2018-12-02T05:06:56.939Z,55.03
2018-12-02T05:09:24.721Z,58.03
2018-12-02T05:11:52.457Z,59.20
2018-12-02T05:14:20.201Z,60.93
2018-12-02T05:16:47.940Z,60.73
2018-12-02T05:19:15.658Z,60.03
2018-12-02T05:21:43.394Z,66.77
2018-12-02T05:24:11.178Z,72.27
2018-12-02T05:26:38.920Z,71.20
2018-12-02T05:29:06.659Z,77.87
2018-12-02T05:31:34.377Z,80.40
2018-12-02T05:34:02.324Z,74.63
2018-12-02T05:36:30.048Z,80.50
2018-12-02T05:38:57.800Z,80.17
2018-12-02T05:41:30.894Z,87.33
2018-12-02T05:43:58.625Z,95.53
2018-12-02T05:46:26.394Z,82.03
2018-12-02T05:48:54.127Z,69.83
2018-12-02T05:51:21.870Z,77.00
2018-12-02T05:53:49.625Z,84.90
2018-12-02T05:56:17.360Z,84.50
2018-12-02T05:58:45.091Z,70.63
2018-12-02T06:01:12.866Z,87.23
2018-12-02T06:03:40.595Z,90.73
2018-12-02T06:06:08.347Z,77.00
2018-12-02T06:08:36.092Z,78.40
2018-12-02T06:11:03.893Z,86.63
2018-12-02T06:13:31.618Z,83.30
2018-12-02T06:15:59.352Z,91.57
2018-12-02T06:18:27.078Z,85.83
2018-12-02T06:20:54.820Z,83.87
2018-12-02T06:23:22.607Z,93.47
2018-12-02T06:25:50.363Z,83.63
2018-12-02T06:28:18.110Z,87.17
2018-12-02T06:30:45.843Z,83.77
2018-12-02T06:33:13.640Z,85.47
2018-12-02T06:35:41.363Z,89.03
2018-12-02T06:38:09.116Z,94.63
2018-12-02T06:40:36.828Z,98.43
2018-12-02T06:43:04.632Z,97.77
2018-12-02T06:45:32.360Z,105.70
2018-12-02T06:48:00.103Z,90.03
2018-12-02T06:50:28.002Z,95.23
2018-12-02T06:52:56.487Z,103.67
2018-12-02T06:55:34.028Z,105.33
2018-12-02T06:59:19.454Z,107.47
2018-12-02T07:01:59.304Z,107.87
2018-12-02T07:04:28.570Z,125.93
2018-12-02T07:06:56.783Z,132.20
2018-12-02T07:09:24.539Z,129.90
2018-12-02T07:11:52.278Z,146.73
2018-12-02T07:14:20.022Z,136.70
2018-12-02T07:16:47.779Z,153.83
2018-12-02T07:19:22.992Z,166.07
2018-12-02T07:21:57.664Z,173.63
2018-12-02T07:24:28.838Z,176.03
2018-12-02T07:26:58.942Z,165.47
2018-12-02T07:29:26.684Z,161.53
2018-12-02T07:31:54.518Z,138.07
2018-12-02T07:34:22.282Z,128.30
2018-12-02T07:36:50.037Z,137.00
2018-12-02T07:39:58.691Z,143.17
2018-12-02T07:42:26.438Z,152.50
2018-12-02T07:44:54.637Z,156.77
2018-12-02T07:47:22.424Z,166.90
2018-12-02T07:49:50.148Z,162.33
2018-12-02T07:52:17.902Z,144.33
2018-12-02T07:54:45.626Z,109.70
2018-12-02T07:57:14.367Z,94.53
2018-12-02T07:59:42.152Z,107.80
2018-12-02T08:02:09.930Z,140.77
2018-12-02T08:04:38.017Z,137.10
2018-12-02T08:07:06.009Z,134.77
2018-12-02T08:09:33.787Z,118.50
2018-12-02T08:12:01.532Z,107.87
2018-12-02T08:14:29.248Z,81.23
2018-12-02T08:16:56.968Z,71.90
2018-12-02T08:19:24.725Z,73.73
2018-12-02T08:21:52.503Z,79.57
2018-12-02T08:24:20.226Z,89.77
2018-12-02T08:26:47.956Z,93.43
2018-12-02T08:29:15.691Z,93.53
2018-12-02T08:31:43.429Z,89.50
2018-12-02T08:34:11.164Z,88.33
2018-12-02T08:36:38.921Z,75.97
2018-12-02T08:39:09.488Z,79.50
2018-12-02T08:41:37.228Z,76.77
2018-12-02T08:44:05.500Z,74.57
2018-12-02T08:46:33.218Z,83.70
2018-12-02T08:49:00.936Z,86.90
2018-12-02T08:51:28.671Z,92.53
2018-12-02T08:53:56.393Z,92.73
2018-12-02T08:56:24.182Z,100.27
2018-12-02T08:58:51.916Z,95.13
2018-12-02T09:01:19.640Z,96.57
2018-12-02T09:03:47.376Z,105.77
2018-12-02T09:06:15.132Z,101.97
2018-12-02T09:08:42.860Z,94.37
2018-12-02T09:11:10.629Z,102.63
2018-12-02T09:13:38.377Z,105.73
2018-12-02T09:16:06.167Z,99.03
2018-12-02T09:18:33.914Z,109.57
2018-12-02T09:21:01.659Z,104.27
2018-12-02T09:23:29.392Z,108.53
2018-12-02T09:25:57.143Z,122.97
2018-12-02T09:28:24.913Z,107.07
2018-12-02T09:30:52.681Z,94.63
2018-12-02T09:33:20.441Z,141.23
2018-12-02T09:35:48.191Z,159.40
2018-12-02T09:38:15.952Z,166.73
2018-12-02T09:40:43.685Z,115.07
2018-12-02T09:43:11.452Z,161.90
2018-12-02T09:45:39.210Z,141.97
2018-12-02T09:48:06.957Z,142.47
2018-12-02T09:50:34.719Z,170.50
2018-12-02T09:53:02.476Z,178.07
2018-12-02T09:55:32.074Z,158.70
2018-12-02T09:57:59.820Z,153.53
2018-12-02T10:00:27.580Z,165.57
2018-12-02T10:02:55.338Z,147.73
2018-12-02T10:05:23.118Z,141.80
2018-12-02T10:07:50.851Z,128.67
2018-12-02T10:10:22.520Z,112.40
2018-12-02T10:12:53.852Z,111.37
2018-12-02T10:15:21.629Z,104.67
2018-12-02T10:17:49.359Z,98.43
2018-12-02T10:20:17.146Z,105.40
2018-12-02T10:22:47.139Z,112.70
2018-12-02T10:25:17.482Z,110.63
2018-12-02T10:27:53.238Z,94.20
2018-12-02T10:30:22.865Z,99.30
2018-12-02T10:32:51.272Z,91.70
2018-12-02T10:35:19.072Z,85.93
2018-12-02T10:37:47.122Z,84.00
2018-12-02T10:40:19.031Z,75.00
2018-12-02T10:42:47.148Z,79.03
2018-12-02T10:45:16.079Z,72.07
2018-12-02T10:47:43.831Z,76.43
2018-12-02T10:50:21.540Z,77.23
2018-12-02T10:52:49.924Z,75.47
2018-12-02T10:55:22.532Z,72.00
2018-12-02T10:57:50.266Z,68.57
2018-12-02T11:00:23.562Z,78.37
2018-12-02T11:02:51.290Z,70.43
2018-12-02T11:05:19.049Z,70.63
2018-12-02T11:07:46.805Z,75.07
2018-12-02T11:10:14.562Z,75.50
2018-12-02T11:12:42.323Z,74.97
2018-12-02T11:15:15.180Z,75.63
2018-12-02T11:17:44.582Z,73.57
2018-12-02T11:20:13.732Z,80.33
2018-12-02T11:22:41.482Z,70.43
2018-12-02T11:25:13.073Z,75.30
2018-12-02T11:27:40.960Z,81.83
2018-12-02T11:30:12.617Z,68.87
2018-12-02T11:32:40.456Z,73.43
2018-12-02T11:35:10.866Z,84.20
2018-12-02T11:37:38.658Z,88.73
2018-12-02T11:40:09.135Z,89.50
2018-12-02T11:42:36.866Z,85.10
2018-12-02T11:45:06.932Z,79.33
2018-12-02T11:47:34.726Z,78.53
2018-12-02T11:50:02.608Z,77.43
2018-12-02T11:52:30.355Z,70.93
2018-12-02T11:54:58.104Z,86.07
2018-12-02T11:57:26.651Z,77.93
2018-12-02T11:59:53.637Z,78.87
2018-12-02T12:02:21.388Z,78.70
2018-12-02T12:04:49.109Z,78.90
2018-12-02T12:07:16.860Z,85.13
2018-12-02T12:09:44.594Z,90.40
2018-12-02T12:12:12.330Z,83.87
2018-12-02T12:14:40.063Z,77.10
2018-12-02T12:17:07.806Z,90.93
2018-12-02T12:19:35.612Z,103.60
2018-12-02T12:22:03.386Z,95.07
2018-12-02T12:24:31.151Z,97.30
2018-12-02T12:26:58.906Z,94.27
2018-12-02T12:29:26.628Z,85.23
2018-12-02T12:31:54.349Z,87.93
2018-12-02T12:34:22.088Z,80.83
2018-12-02T12:36:49.830Z,77.10
2018-12-02T12:39:17.564Z,76.17
2018-12-02T12:41:45.280Z,76.63
2018-12-02T12:44:13.039Z,75.87
2018-12-02T12:46:40.788Z,72.70
2018-12-02T12:49:08.524Z,70.23
2018-12-02T12:51:39.800Z,69.27
2018-12-02T12:54:10.622Z,68.50
2018-12-02T12:56:38.377Z,75.73
2018-12-02T12:59:06.139Z,70.20
2018-12-02T13:01:33.890Z,72.73
2018-12-02T13:04:01.634Z,71.43
2018-12-02T13:06:29.438Z,84.27
2018-12-02T13:08:57.194Z,78.93
2018-12-02T13:11:24.958Z,85.43
2018-12-02T13:13:52.698Z,82.43
2018-12-02T13:16:20.473Z,72.53
2018-12-02T13:18:48.242Z,147.40
2018-12-02T13:21:15.961Z,133.03
2018-12-02T13:23:43.714Z,92.67
2018-12-02T13:26:11.483Z,83.97
2018-12-02T13:28:39.212Z,85.87
2018-12-02T13:31:08.528Z,97.97
2018-12-02T13:33:37.516Z,96.27
2018-12-02T13:36:05.984Z,101.00
2018-12-02T13:38:34.373Z,94.63
2018-12-02T13:41:03.842Z,94.57
2018-12-02T13:43:33.098Z,109.27
2018-12-02T13:46:01.415Z,107.33
2018-12-02T13:48:29.797Z,124.53
2018-12-02T13:50:57.527Z,121.90
2018-12-02T13:53:25.280Z,115.40
2018-12-02T13:55:53.063Z,115.80
2018-12-02T13:58:20.796Z,104.90
2018-12-02T14:00:48.552Z,108.27
2018-12-02T14:03:16.319Z,87.73
2018-12-02T14:05:46.786Z,92.43
2018-12-02T14:08:14.617Z,94.87
2018-12-02T14:10:42.718Z,99.63
2018-12-02T14:13:15.988Z,98.50
2018-12-02T14:16:21.236Z,102.97
2018-12-02T14:18:49.536Z,104.73
2018-12-02T14:21:17.257Z,108.80
2018-12-02T14:23:45.069Z,115.83
2018-12-02T14:26:15.895Z,105.83
2018-12-02T14:29:08.838Z,96.00
2018-12-02T14:31:37.627Z,98.33
2018-12-02T14:34:05.960Z,105.00
2018-12-02T14:36:33.698Z,104.87
2018-12-02T14:39:01.548Z,107.17
2018-12-02T14:41:29.269Z,103.03
2018-12-02T14:43:57.000Z,104.67
2018-12-02T14:46:24.757Z,110.40
2018-12-02T14:48:52.954Z,114.87
2018-12-02T14:51:20.681Z,122.97
2018-12-02T14:53:48.417Z,115.13
2018-12-02T14:56:16.176Z,128.60
2018-12-02T14:58:43.900Z,132.47
2018-12-02T15:01:11.647Z,134.63
2018-12-02T15:03:39.374Z,139.47
2018-12-02T15:06:07.118Z,134.77
2018-12-02T15:08:34.868Z,142.23
2018-12-02T15:11:02.631Z,149.17
2018-12-02T15:13:30.372Z,147.23
2018-12-02T15:15:58.110Z,144.87
2018-12-02T15:18:25.832Z,154.20
2018-12-02T15:20:53.565Z,146.80
2018-12-02T15:23:21.291Z,139.40
2018-12-02T15:25:49.027Z,161.20
2018-12-02T15:28:16.769Z,175.90
2018-12-02T15:30:44.565Z,168.57
2018-12-02T15:33:12.300Z,169.20
2018-12-02T15:35:40.043Z,176.73
2018-12-02T15:38:07.799Z,191.07
2018-12-02T15:40:35.606Z,225.87
2018-12-02T15:43:03.324Z,239.70
2018-12-02T15:45:31.099Z,230.67
2018-12-02T15:47:58.829Z,222.73
2018-12-02T15:50:26.572Z,249.97
2018-12-02T15:52:54.328Z,271.57
2018-12-02T15:55:26.819Z,256.87
2018-12-02T15:57:54.724Z,266.87
2018-12-02T16:00:25.443Z,273.90
2018-12-02T16:02:53.218Z,275.57
2018-12-02T16:05:20.982Z,282.17
2018-12-02T16:07:48.742Z,294.07
2018-12-02T16:10:16.521Z,318.50
2018-12-02T16:12:45.570Z,315.93
2018-12-02T16:15:17.318Z,336.70
2018-12-02T16:17:46.086Z,339.40
2018-12-02T16:20:17.139Z,324.20
2018-12-02T16:22:44.926Z,311.23
2018-12-02T16:25:12.660Z,303.93
2018-12-02T16:27:40.422Z,299.63
2018-12-02T16:30:10.816Z,293.30
2018-12-02T16:32:38.578Z,302.47
2018-12-02T16:35:07.968Z,321.70
2018-12-02T16:37:35.721Z,372.73
2018-12-02T16:40:03.858Z,383.17
2018-12-02T16:42:31.573Z,387.33
2018-12-02T16:44:59.300Z,389.83
2018-12-02T16:47:27.029Z,391.20
2018-12-02T16:49:54.748Z,388.37
2018-12-02T16:52:23.248Z,406.07
2018-12-02T16:54:51.009Z,396.13
2018-12-02T16:57:20.342Z,386.53
2018-12-02T16:59:48.075Z,400.90
2018-12-02T17:02:15.810Z,395.90
2018-12-02T17:04:43.585Z,389.13
2018-12-02T17:07:12.219Z,379.97
2018-12-02T17:09:40.021Z,379.80
2018-12-02T17:12:07.806Z,370.73
2018-12-02T17:14:38.653Z,372.03
2018-12-02T17:17:03.421Z,355.93
2018-12-02T17:19:31.166Z,377.50
2018-12-02T17:21:58.913Z,380.43
2018-12-02T17:24:26.654Z,378.13
2018-12-02T17:26:54.407Z,378.33
2018-12-02T17:29:22.199Z,365.07
2018-12-02T17:31:54.852Z,359.83
2018-12-02T17:34:22.653Z,352.37
2018-12-02T17:36:50.403Z,338.53
2018-12-02T17:39:21.594Z,322.47
2018-12-02T17:41:55.710Z,350.23
2018-12-02T17:44:23.456Z,353.87
2018-12-02T17:46:51.240Z,371.93
2018-12-02T17:49:20.035Z,376.80
2018-12-02T17:51:47.799Z,376.13
2018-12-02T17:54:15.549Z,350.37
2018-12-02T17:56:43.392Z,343.67
2018-12-02T17:59:11.189Z,332.53
2018-12-02T18:01:38.951Z,322.83
2018-12-02T18:04:07.367Z,345.27
2018-12-02T18:06:35.304Z,336.03
2018-12-02T18:09:03.312Z,348.73
2018-12-02T18:11:31.070Z,345.70
2018-12-02T18:13:58.823Z,335.73
2018-12-02T18:16:27.691Z,335.80
2018-12-02T18:18:56.402Z,330.87
2018-12-02T18:21:24.155Z,323.17
2018-12-02T18:23:51.894Z,325.73
2018-12-02T18:26:19.738Z,310.33
2018-12-02T18:28:47.513Z,334.13
2018-12-02T18:31:15.269Z,311.73
2018-12-02T18:33:43.028Z,319.77
2018-12-02T18:36:12.844Z,310.03
2018-12-02T18:38:42.126Z,319.77
2018-12-02T18:41:19.584Z,328.93
2018-12-02T18:43:47.338Z,308.77
2018-12-02T18:46:15.847Z,298.57
2018-12-02T18:48:43.583Z,284.77
2018-12-02T18:51:11.332Z,289.73
2018-12-02T18:53:39.501Z,288.00
2018-12-02T18:56:07.248Z,286.13
2018-12-02T18:58:34.980Z,262.50
2018-12-02T19:01:02.792Z,249.57
2018-12-02T19:03:30.520Z,243.03
2018-12-02T19:05:58.270Z,203.30
2018-12-02T19:08:26.005Z,176.17
2018-12-02T19:10:56.637Z,185.60
2018-12-02T19:13:24.376Z,179.73
2018-12-02T19:15:52.131Z,187.90
2018-12-02T19:18:19.993Z,180.80
2018-12-02T19:20:49.388Z,188.03
2018-12-02T19:23:22.285Z,198.50
2018-12-02T19:25:50.064Z,190.93
2018-12-02T19:28:17.806Z,191.23
2018-12-02T19:30:45.539Z,205.20
2018-12-02T19:33:15.643Z,213.03
2018-12-02T19:35:44.029Z,209.03
2018-12-02T19:38:18.512Z,212.77
2018-12-02T19:40:47.148Z,218.27
2018-12-02T19:43:14.932Z,229.03
2018-12-02T19:45:42.704Z,224.90
2018-12-02T19:48:10.461Z,217.53
2018-12-02T19:50:38.311Z,232.83
2018-12-02T19:53:06.102Z,211.00
2018-12-02T19:55:34.810Z,211.63
2018-12-02T19:58:02.603Z,207.37
2018-12-02T20:00:36.684Z,218.50
2018-12-02T20:03:04.444Z,233.13
2018-12-02T20:05:32.178Z,235.67
2018-12-02T20:08:01.021Z,225.17
2018-12-02T20:10:30.047Z,208.23
2018-12-02T20:12:59.436Z,224.77
2018-12-02T20:15:27.178Z,215.63
2018-12-02T20:17:54.987Z,207.50
2018-12-02T20:20:58.822Z,187.03
2018-12-02T20:23:32.099Z,174.60
2018-12-02T20:26:00.824Z,166.83
2018-12-02T20:28:36.220Z,172.87
2018-12-02T20:31:10.225Z,172.70
2018-12-02T20:33:37.986Z,168.30
2018-12-02T20:36:06.481Z,160.97
2018-12-02T20:38:34.227Z,150.53
2018-12-02T20:41:02.033Z,152.97
2018-12-02T20:43:30.385Z,153.37
2018-12-02T20:45:58.120Z,141.13
2018-12-02T20:48:25.877Z,150.20
2018-12-02T20:50:53.622Z,136.60
2018-12-02T20:53:21.390Z,128.63
2018-12-02T20:55:49.151Z,135.80
2018-12-02T20:58:16.881Z,130.23
2018-12-02T21:00:44.630Z,135.40
2018-12-02T21:03:15.065Z,139.27
2018-12-02T21:05:52.538Z,136.07
2018-12-02T21:08:20.272Z,133.80
2018-12-02T21:10:48.015Z,137.03
2018-12-02T21:13:15.742Z,146.50
2018-12-02T21:15:43.667Z,139.47
2018-12-02T21:18:11.452Z,140.67
2018-12-02T21:20:39.184Z,141.77
2018-12-02T21:23:06.960Z,146.30
2018-12-02T21:25:34.698Z,144.67
2018-12-02T21:28:02.465Z,145.97
2018-12-02T21:30:30.469Z,141.90
2018-12-02T21:32:58.212Z,146.67
2018-12-02T21:35:25.979Z,157.87
2018-12-02T21:37:55.193Z,160.00
2018-12-02T21:40:23.060Z,173.17
2018-12-02T21:42:50.812Z,167.80
2018-12-02T21:45:18.658Z,164.37
2018-12-02T21:47:48.469Z,164.93
2018-12-02T21:50:19.591Z,161.87
2018-12-02T21:52:47.358Z,173.17
2018-12-02T21:55:15.167Z,170.97
2018-12-02T21:57:42.913Z,162.30
2018-12-02T22:00:20.172Z,131.87
2018-12-02T22:02:48.379Z,138.90
2018-12-02T22:05:16.202Z,142.03
2018-12-02T22:07:44.094Z,142.77
2018-12-02T22:10:18.237Z,143.00
2018-12-02T22:12:46.017Z,139.37
2018-12-02T22:15:13.793Z,135.80
2018-12-02T22:17:41.524Z,134.43
2018-12-02T22:20:13.376Z,132.60
2018-12-02T22:22:41.224Z,138.93
2018-12-02T22:25:10.998Z,130.57
2018-12-02T22:27:38.751Z,130.07
2018-12-02T22:30:09.794Z,129.60
2018-12-02T22:32:37.576Z,134.93
2018-12-02T22:35:07.426Z,132.60
2018-12-02T22:37:35.202Z,130.47
2018-12-02T22:40:03.450Z,129.77
2018-12-02T22:42:31.166Z,135.20
2018-12-02T22:44:58.908Z,135.80
2018-12-02T22:47:26.653Z,128.77
2018-12-02T22:49:54.471Z,135.60
2018-12-02T22:52:22.221Z,153.40
2018-12-02T22:54:49.958Z,156.93
2018-12-02T22:57:17.689Z,154.07
2018-12-02T22:59:45.449Z,152.23
2018-12-02T23:02:16.938Z,144.23
2018-12-02T23:04:45.111Z,154.90
2018-12-02T23:07:12.878Z,151.33
2018-12-02T23:09:40.652Z,153.23
2018-12-02T23:12:08.456Z,138.93
2018-12-02T23:14:36.221Z,142.40
2018-12-02T23:17:24.874Z,138.50
2018-12-02T23:19:53.387Z,141.37
2018-12-02T23:22:21.989Z,133.77
2018-12-02T23:24:51.046Z,127.50
2018-12-02T23:27:18.899Z,126.97
2018-12-02T23:29:46.703Z,121.57
2018-12-02T23:32:14.468Z,118.07
2018-12-02T23:34:42.239Z,119.83
2018-12-02T23:37:09.981Z,126.10
2018-12-02T23:39:38.711Z,129.57
2018-12-02T23:42:06.478Z,125.93
2018-12-02T23:44:34.246Z,119.57
2018-12-02T23:47:02.009Z,127.67
2018-12-02T23:49:29.775Z,125.23
2018-12-02T23:51:57.559Z,114.77
2018-12-02T23:54:25.316Z,113.83
2018-12-02T23:56:53.073Z,116.50
2018-12-02T23:59:20.834Z,108.33
